Todos
Hohn Air Base Airport (Hohn) ETNH Condições meteorológicas
|
Hohn (ETNH)
Céu Limpo
Vento Ligeiro |
|
19 °C |
ETNH Previsão da área de terminais
| Date | Time (CEST) | Flight Rules | Wind Dir. | Speed | Type | Height AGL (ft) | Visibility | Remarks | ||||||
|---|---|---|---|---|---|---|---|---|---|---|---|---|---|---|
Histórico recente de METAR ETNH
| Date | Time (CEST) | Flight Rules | Wind Dir. | Speed | Type | Height AGL (ft) | Visibility | Temp (°C) | Temp (°F) | Dew Point (°C) | Dew Point (°F) | Rel. Humid. | Pressure | Density Altitude | Remarks |
|---|---|---|---|---|---|---|---|---|---|---|---|---|---|---|---|
| gap in available data | |||||||||||||||
| 06-Set | 18:20 | VFR | 240° | 5 kt | 10000 meters | 19° | 66° | 9° | 48° | 52% | 1024 mb | 200 ft | |||
| 06-Set | 17:20 | VFR | 230° | 7 kt | 10000 meters | 19° | 66° | 10° | 50° | 56% | 1024 mb | 200 ft | |||
| 06-Set | 16:20 | VFR | 240° | 7 kt | 10000 meters | 19° | 66° | 10° | 50° | 56% | 1024 mb | 200 ft | |||
| 06-Set | 15:20 | VFR | 260° | 7 kt | 10000 meters | 18° | 64° | 10° | 50° | 59% | 1025 mb | 51 ft | |||
| 06-Set | 14:20 | VFR | 240° | 7 kt | 10000 meters | 18° | 64° | 11° | 51° | 64% | 1025 mb | 51 ft | |||
| 06-Set | 13:20 | VFR | 280° | 10 kt | 10000 meters | 18° | 64° | 9° | 48° | 56% | 1025 mb | 51 ft | |||
| 06-Set | 12:20 | VFR | 240° | 12 kt | 10000 meters | 19° | 66° | 10° | 50° | 56% | 1025 mb | 171 ft | |||
| 06-Set | 11:20 | VFR | 250° | 11 kt | 10000 meters | 18° | 64° | 9° | 48° | 56% | 1024 mb | 80 ft | |||
| 06-Set | 10:20 | VFR | 270° | 8 kt | 10000 meters | 17° | 62° | 10° | 50° | 63% | 1024 mb | -40 ft | |||
| 06-Set | 09:20 | VFR | 240° | 5 kt | 10000 meters | 16° | 60° | 10° | 50° | 68% | 1024 mb | -160 ft | |||
| 06-Set | 08:20 | VFR | 240° | 5 kt | 10000 meters | 13° | 55° | 11° | 51° | 88% | 1023 mb | -490 ft | |||
| 06-Set | 07:20 | VFR | 240° | 4 kt | 10000 meters | 10° | 50° | 10° | 50° | 100% | 1023 mb | -850 ft | |||
| 06-Set | 06:20 | VFR | 240° | 3 kt | 10000 meters | 10° | 50° | 9° | 48° | 93% | 1022 mb | -821 ft | |||
| 06-Set | 05:20 | VFR | 240° | 4 kt | 10000 meters | 11° | 51° | 9° | 48° | 87% | 1022 mb | -701 ft | |||
| 06-Set | 04:20 | VFR | 250° | 6 kt | 10000 meters | 11° | 51° | 9° | 48° | 87% | 1022 mb | -701 ft | |||
| 06-Set | 03:20 | VFR | 260° | 7 kt | 10000 meters | 13° | 55° | 10° | 50° | 82% | 1021 mb | -431 ft | |||
| 06-Set | 02:20 | VFR | 250° | 6 kt | 10000 meters | 12° | 53° | 10° | 50° | 88% | 1021 mb | -551 ft | |||
| 06-Set | 01:20 | VFR | 240° | 8 kt | 10000 meters | 12° | 53° | 10° | 50° | 88% | 1020 mb | -522 ft | |||
| 06-Set | 00:20 | VFR | 260° | 8 kt | 10000 meters |
13° | 55° | 11° | 51° | 88% | 1020 mb | -402 ft | |||
| 05-Set | 23:20 | MVFR | 270° | 9 kt | 6000 meters |
14° | 57° | 11° | 51° | 82% | 1020 mb | -282 ft | |||
| 05-Set | 22:20 | VFR | 270° | 12 kt | 10000 meters | 14° | 57° | 11° | 51° | 82% | 1019 mb | -252 ft | |||
| 05-Set | 21:20 | VFR | 270° | 13 kt | 10000 meters | 14° | 57° | 10° | 50° | 77% | 1018 mb | -223 ft | |||
| 05-Set | 20:20 | VFR | 280° | 15 kt | 10000 meters | 15° | 59° | 10° | 50° | 72% | 1018 mb | -103 ft | |||
| 05-Set | 19:20 | VFR | 280° | 16 kt | 10000 meters | 15° | 59° | 11° | 51° | 77% | 1017 mb | -73 ft | |||
Entrar
| Seu navegador não suporta. atualize seu navegador |
